createdAt,value
2022-12-11T00:05:52.063Z,15.13
2022-12-11T00:10:57.096Z,16.75
2022-12-11T00:16:01.085Z,17.42
2022-12-11T00:21:05.894Z,17.70
2022-12-11T00:26:13.565Z,17.33
2022-12-11T00:31:18.943Z,15.13
2022-12-11T00:36:24.580Z,15.85
2022-12-11T00:41:29.665Z,16.63
2022-12-11T00:46:33.465Z,15.60
2022-12-11T00:51:37.230Z,15.88
2022-12-11T00:56:42.323Z,15.02
2022-12-11T01:01:46.055Z,13.55
2022-12-11T01:06:49.791Z,16.63
2022-12-11T01:11:54.859Z,14.75
2022-12-11T01:16:58.679Z,15.35
2022-12-11T01:22:02.403Z,14.07
2022-12-11T01:27:07.521Z,15.10
2022-12-11T01:32:11.172Z,15.02
2022-12-11T01:37:14.886Z,14.00
2022-12-11T01:42:22.186Z,15.75
2022-12-11T01:47:25.897Z,15.35
2022-12-11T01:52:29.603Z,14.48
2022-12-11T01:57:34.667Z,15.70
2022-12-11T02:02:38.414Z,14.10
2022-12-11T02:07:46.281Z,14.50
2022-12-11T02:12:58.870Z,15.30
2022-12-11T02:18:13.821Z,13.23
2022-12-11T02:23:44.414Z,14.57
2022-12-11T02:28:52.236Z,13.65
2022-12-11T02:34:02.851Z,13.23
2022-12-11T02:39:08.578Z,12.05
2022-12-11T02:44:17.327Z,10.63
2022-12-11T02:49:22.625Z,10.93
2022-12-11T02:54:29.673Z,10.68
2022-12-11T02:59:38.653Z,10.00
2022-12-11T03:04:43.234Z,10.07
2022-12-11T03:09:49.001Z,10.55
2022-12-11T03:14:54.424Z,10.38
2022-12-11T03:20:06.872Z,11.50
2022-12-11T03:25:14.089Z,11.02
2022-12-11T03:30:21.542Z,11.45
2022-12-11T03:35:28.672Z,11.60
2022-12-11T03:40:35.619Z,11.00
2022-12-11T03:50:46.742Z,10.70
2022-12-11T03:55:52.092Z,10.55
2022-12-11T04:00:57.444Z,10.32
2022-12-11T04:06:01.077Z,8.93
2022-12-11T04:11:22.995Z,8.60
2022-12-11T04:16:28.007Z,9.23
2022-12-11T04:21:49.156Z,11.50
2022-12-11T04:26:52.770Z,10.00
2022-12-11T04:31:57.786Z,10.43
2022-12-11T04:37:01.524Z,9.57
2022-12-11T04:42:05.302Z,10.13
2022-12-11T04:47:10.319Z,9.65
2022-12-11T04:52:13.969Z,8.48
2022-12-11T04:57:17.614Z,7.60
2022-12-11T05:02:22.621Z,7.57
2022-12-11T05:07:26.874Z,7.50
2022-12-11T05:12:30.772Z,7.85
2022-12-11T05:17:35.876Z,7.60
2022-12-11T05:22:40.032Z,7.53
2022-12-11T05:27:43.743Z,7.18
2022-12-11T05:32:48.964Z,8.10
2022-12-11T05:37:52.682Z,7.38
2022-12-11T05:42:56.389Z,7.70
2022-12-11T05:48:01.475Z,7.78
2022-12-11T05:53:05.392Z,7.75
2022-12-11T05:58:09.024Z,7.65
2022-12-11T06:03:14.402Z,8.05
2022-12-11T06:08:18.344Z,7.50
2022-12-11T06:13:22.206Z,6.22
2022-12-11T06:18:27.229Z,7.90
2022-12-11T06:23:30.888Z,7.97
2022-12-11T06:28:34.587Z,6.88
2022-12-11T06:33:39.733Z,7.15
2022-12-11T06:38:43.983Z,7.72
2022-12-11T06:43:47.753Z,6.95
2022-12-11T06:48:53.373Z,6.35
2022-12-11T06:53:58.569Z,7.65
2022-12-11T06:59:07.571Z,6.95
2022-12-11T07:04:12.877Z,7.40
2022-12-11T07:09:16.585Z,7.45
2022-12-11T07:14:23.137Z,7.85
2022-12-11T07:19:28.415Z,7.35
2022-12-11T07:24:32.464Z,7.63
2022-12-11T07:29:36.190Z,7.38
2022-12-11T07:34:41.405Z,7.45
2022-12-11T07:39:45.042Z,7.90
2022-12-11T07:44:48.695Z,8.02
2022-12-11T07:49:53.715Z,7.90
2022-12-11T07:54:57.464Z,7.78
2022-12-11T08:00:01.508Z,7.53
2022-12-11T08:05:07.824Z,8.60
2022-12-11T08:10:11.708Z,7.83
2022-12-11T08:15:15.394Z,7.80
2022-12-11T08:20:20.568Z,8.75
2022-12-11T08:25:24.784Z,8.48
2022-12-11T08:30:28.595Z,7.53
2022-12-11T08:35:33.949Z,8.55
2022-12-11T08:40:40.277Z,7.95
2022-12-11T08:45:44.015Z,8.50
2022-12-11T08:50:49.023Z,8.40
2022-12-11T08:55:52.739Z,9.35
2022-12-11T09:00:56.815Z,9.07
2022-12-11T09:06:04.900Z,8.52
2022-12-11T09:11:11.075Z,9.10
2022-12-11T09:16:16.579Z,10.03
2022-12-11T09:21:23.316Z,9.68
2022-12-11T09:26:29.280Z,9.40
2022-12-11T09:31:34.690Z,10.25
2022-12-11T09:36:46.807Z,8.75
2022-12-11T09:42:00.827Z,9.82
2022-12-11T09:47:04.618Z,10.20
2022-12-11T09:52:15.149Z,9.93
2022-12-11T09:57:41.360Z,10.75
2022-12-11T10:03:23.021Z,14.02
2022-12-11T10:08:41.433Z,19.45
2022-12-11T10:14:30.033Z,21.33
2022-12-11T10:19:34.463Z,12.70
2022-12-11T10:30:15.643Z,11.15
2022-12-11T10:35:25.314Z,10.70
2022-12-11T10:40:32.472Z,11.38
2022-12-11T10:45:36.191Z,10.90
2022-12-11T10:50:41.387Z,10.85
2022-12-11T10:55:49.141Z,11.35
2022-12-11T11:01:05.928Z,11.77
2022-12-11T11:06:17.273Z,12.38
2022-12-11T11:11:28.834Z,10.90
2022-12-11T11:16:33.249Z,11.02
2022-12-11T11:21:37.304Z,10.20
2022-12-11T11:27:11.801Z,10.98
2022-12-11T11:32:18.466Z,11.95
2022-12-11T11:37:31.320Z,10.87
2022-12-11T11:42:44.362Z,10.40
2022-12-11T11:47:57.645Z,10.20
2022-12-11T11:53:06.826Z,11.23
2022-12-11T11:58:18.036Z,11.15
2022-12-11T12:03:25.324Z,9.88
2022-12-11T12:08:41.056Z,9.50
2022-12-11T12:13:55.534Z,9.75
2022-12-11T12:19:07.367Z,9.90
2022-12-11T12:24:21.752Z,9.77
2022-12-11T12:29:38.381Z,8.73
2022-12-11T12:34:53.895Z,9.32
2022-12-11T12:40:04.545Z,8.38
2022-12-11T12:45:22.955Z,9.00
2022-12-11T12:50:31.733Z,8.00
2022-12-11T12:55:36.962Z,7.72
2022-12-11T13:00:43.960Z,8.40
2022-12-11T13:11:06.094Z,8.65
2022-12-11T13:16:37.015Z,8.30
2022-12-11T13:21:40.969Z,8.65
2022-12-11T13:26:45.001Z,8.23
2022-12-11T13:31:58.949Z,8.25
2022-12-11T13:37:04.935Z,9.20
2022-12-11T13:42:22.365Z,8.63
2022-12-11T13:47:28.410Z,7.75
2022-12-11T13:52:32.710Z,8.07
2022-12-11T13:57:47.283Z,8.90
2022-12-11T14:02:54.315Z,9.65
2022-12-11T14:13:07.027Z,8.32
2022-12-11T14:18:18.969Z,8.45
2022-12-11T14:23:26.283Z,8.27
2022-12-11T14:28:37.029Z,7.22
2022-12-11T14:33:46.218Z,7.97
2022-12-11T14:38:55.439Z,7.82
2022-12-11T14:44:04.519Z,8.13
2022-12-11T14:49:18.897Z,7.85
2022-12-11T14:54:29.000Z,7.45
2022-12-11T14:59:36.173Z,7.35
2022-12-11T15:04:41.283Z,7.53
2022-12-11T15:09:47.911Z,7.55
2022-12-11T15:14:54.026Z,7.82
2022-12-11T15:20:06.472Z,7.77
2022-12-11T15:25:23.205Z,7.72
2022-12-11T15:30:29.947Z,6.97
2022-12-11T15:35:35.327Z,8.00
2022-12-11T15:40:40.421Z,6.45
2022-12-11T15:45:44.295Z,7.30
2022-12-11T15:50:49.555Z,7.32
2022-12-11T15:55:54.099Z,7.97
2022-12-11T16:00:58.478Z,7.88
2022-12-11T16:06:05.303Z,7.10
2022-12-11T16:11:09.110Z,7.93
2022-12-11T16:16:12.772Z,7.43
2022-12-11T16:21:21.351Z,7.32
2022-12-11T16:26:25.571Z,7.63
2022-12-11T16:31:29.953Z,6.93
2022-12-11T16:36:35.318Z,8.05
2022-12-11T16:41:39.088Z,8.95
2022-12-11T16:46:43.245Z,7.43
2022-12-11T16:51:49.343Z,7.30
2022-12-11T16:56:53.285Z,7.80
2022-12-11T17:01:57.372Z,8.20
2022-12-11T17:07:02.521Z,9.30
2022-12-11T17:12:07.105Z,7.70
2022-12-11T17:17:11.130Z,10.73
2022-12-11T17:22:16.717Z,8.45
2022-12-11T17:27:20.436Z,8.07
2022-12-11T17:32:24.171Z,8.32
2022-12-11T17:37:29.484Z,8.82
2022-12-11T17:42:33.310Z,8.98
2022-12-11T17:47:36.959Z,7.95
2022-12-11T17:52:44.315Z,8.02
2022-12-11T17:57:49.116Z,7.32
2022-12-11T18:02:52.886Z,8.52
2022-12-11T18:07:58.361Z,9.80
2022-12-11T18:13:02.624Z,10.82
2022-12-11T18:18:07.200Z,8.27
2022-12-11T18:23:12.316Z,8.40
2022-12-11T18:28:16.118Z,7.97
2022-12-11T18:33:19.764Z,10.80
2022-12-11T18:38:25.307Z,8.57
2022-12-11T18:43:29.033Z,7.32
2022-12-11T18:48:32.851Z,8.07
2022-12-11T18:53:40.310Z,6.93
2022-12-11T18:58:44.556Z,7.85
2022-12-11T19:03:49.194Z,9.75
2022-12-11T19:08:54.566Z,8.88
2022-12-11T19:13:59.047Z,7.82
2022-12-11T19:19:04.962Z,14.13
2022-12-11T19:24:13.569Z,13.88
2022-12-11T19:29:22.474Z,9.52
2022-12-11T19:34:26.753Z,8.60
2022-12-11T19:39:31.753Z,7.95
2022-12-11T19:44:38.007Z,6.68
2022-12-11T19:49:41.776Z,6.77
2022-12-11T19:54:46.977Z,8.20
2022-12-11T19:59:56.794Z,8.02
2022-12-11T20:05:01.155Z,7.50
2022-12-11T20:10:08.629Z,7.30
2022-12-11T20:15:12.643Z,7.68
2022-12-11T20:20:16.386Z,7.57
2022-12-11T20:25:21.537Z,7.75
2022-12-11T20:30:25.907Z,6.75
2022-12-11T20:35:29.651Z,8.00
2022-12-11T20:40:34.865Z,9.50
2022-12-11T20:45:38.755Z,8.88
2022-12-11T20:50:42.561Z,8.52
2022-12-11T20:55:47.802Z,7.65
2022-12-11T21:00:51.684Z,7.75
2022-12-11T21:05:55.698Z,8.45
2022-12-11T21:11:00.808Z,7.95
2022-12-11T21:16:06.424Z,7.97
2022-12-11T21:21:10.213Z,7.53
2022-12-11T21:26:15.840Z,8.80
2022-12-11T21:31:21.104Z,9.75
2022-12-11T21:36:25.870Z,8.85
2022-12-11T21:41:31.242Z,9.45
2022-12-11T21:46:35.070Z,9.48
2022-12-11T21:51:46.839Z,8.45
2022-12-11T21:56:54.282Z,8.60
2022-12-11T22:01:58.053Z,8.80
2022-12-11T22:07:02.078Z,8.57
2022-12-11T22:12:07.683Z,8.30
2022-12-11T22:17:11.498Z,9.48
2022-12-11T22:22:15.676Z,9.73
2022-12-11T22:27:23.892Z,9.27
2022-12-11T22:32:28.287Z,9.45
2022-12-11T22:37:32.088Z,10.05
2022-12-11T22:42:37.190Z,9.48
2022-12-11T22:47:40.911Z,9.82
2022-12-11T22:52:45.432Z,8.90
2022-12-11T22:57:50.544Z,10.13
2022-12-11T23:02:55.769Z,9.07
2022-12-11T23:07:59.750Z,9.93
2022-12-11T23:13:05.427Z,8.73
2022-12-11T23:18:09.576Z,8.25
2022-12-11T23:23:13.460Z,8.52
2022-12-11T23:28:33.789Z,9.45
2022-12-11T23:33:38.150Z,9.82
2022-12-11T23:38:42.366Z,9.18
2022-12-11T23:43:47.464Z,10.50
2022-12-11T23:48:52.082Z,9.15
2022-12-11T23:53:56.528Z,9.63
2022-12-11T23:59:01.870Z,9.32
